Tanja Jacob — A8YR7 — position and weather

sailwx.info

Track history (hours):
 
Tides and Currents Weather Stations Pressure Air Temp Water Temp Dewpoint Dewpoint Depression Visibility Wind Speed Wind Dir Waves Ship Positions

Tanja Jacob

Last reported at 2017-Apr-15 06:44 UTC. Time now 2017-Apr-29 15:20 UTC.
Position N 26°13' W 079°15'.
Warning: this ship's position is 14 days out of date.

Length 227 m; draft 8.2 m.

Type: Ship. MMSI: 636092217.

Date/timePositionNaut miles runAvg speedWind from/ knotsBaromVisibWave heightAir tempDewpointWater temp
2017-Apr-15 06:44N 26°13' W 079°15'210.2
2017-Apr-15 06:30N 26°12' W 079°17'510.4
2017-Apr-15 06:00N 26°09' W 079°23'2411.2
2017-Apr-15 03:54N 25°46' W 079°30'511.8
2017-Apr-15 03:27N 25°41' W 079°29'  
2017-Apr-06 06:59N 24°24' W 080°17'14 9.4
2017-Apr-06 05:31N 24°31' W 080°04'9 9.3
2017-Apr-06 04:35N 24°36' W 079°56'1 9.3
2017-Apr-06 04:30N 24°36' W 079°55'5 9.5
2017-Apr-06 04:00N 24°39' W 079°51'1010.3
2017-Apr-06 03:04N 24°44' W 079°42'110.7
2017-Apr-06 03:00N 24°45' W 079°41'5 9.9
2017-Apr-06 02:30N 24°48' W 079°38'510.7
2017-Apr-06 02:00N 24°54' W 079°38'610.7
2017-Apr-06 01:28N 24°60' W 079°37'510.4
2017-Apr-06 01:00N 25°04' W 079°37'1710.0
2017-Apr-05 23:16N 25°22' W 079°37'3 9.7
2017-Apr-05 23:00N 25°24' W 079°36'5 9.6
2017-Apr-05 22:30N 25°29' W 079°36'5 9.5
2017-Apr-05 22:00N 25°34' W 079°36'5 9.2
2017-Apr-05 21:30N 25°38' W 079°36'5 9.0
2017-Apr-05 21:00N 25°43' W 079°36'4 8.9
2017-Apr-05 20:30N 25°47' W 079°36'4 8.9
2017-Apr-05 20:00N 25°52' W 079°35'5 9.3
2017-Apr-05 19:30N 25°56' W 079°33'5 9.7
2017-Apr-05 19:00N 26°00' W 079°30'5 9.8
2017-Apr-05 18:30N 26°04' W 079°27'510.0
2017-Apr-05 17:58N 26°09' W 079°24'510.2
2017-Apr-05 17:30N 26°13' W 079°21'610.5
2017-Apr-05 16:56N 26°17' W 079°17'  
Track history (hours):
 
Tides and Currents Weather Stations Pressure Air Temp Water Temp Dewpoint Dewpoint Depression Visibility Wind Speed Wind Dir Waves Ship Positions

Tanja Jacob

Last reported at 2017-Apr-15 06:44 UTC. Time now 2017-Apr-29 15:20 UTC.
Position N 26°13' W 079°15'.
Warning: this ship's position is 14 days out of date.

Length 227 m; draft 8.2 m.

Type: Ship. MMSI: 636092217.

Date/timePositionNaut miles runAvg speedWind from/ knotsBaromVisibWave heightAir tempDewpointWater temp
2017-Apr-15 06:44N 26°13' W 079°15'210.2
2017-Apr-15 06:30N 26°12' W 079°17'510.4
2017-Apr-15 06:00N 26°09' W 079°23'2411.2
2017-Apr-15 03:54N 25°46' W 079°30'511.8
2017-Apr-15 03:27N 25°41' W 079°29'  
2017-Apr-06 06:59N 24°24' W 080°17'14 9.4
2017-Apr-06 05:31N 24°31' W 080°04'9 9.3
2017-Apr-06 04:35N 24°36' W 079°56'1 9.3
2017-Apr-06 04:30N 24°36' W 079°55'5 9.5
2017-Apr-06 04:00N 24°39' W 079°51'1010.3
2017-Apr-06 03:04N 24°44' W 079°42'110.7
2017-Apr-06 03:00N 24°45' W 079°41'5 9.9
2017-Apr-06 02:30N 24°48' W 079°38'510.7
2017-Apr-06 02:00N 24°54' W 079°38'610.7
2017-Apr-06 01:28N 24°60' W 079°37'510.4
2017-Apr-06 01:00N 25°04' W 079°37'1710.0
2017-Apr-05 23:16N 25°22' W 079°37'3 9.7
2017-Apr-05 23:00N 25°24' W 079°36'5 9.6
2017-Apr-05 22:30N 25°29' W 079°36'5 9.5
2017-Apr-05 22:00N 25°34' W 079°36'5 9.2
2017-Apr-05 21:30N 25°38' W 079°36'5 9.0
2017-Apr-05 21:00N 25°43' W 079°36'4 8.9
2017-Apr-05 20:30N 25°47' W 079°36'4 8.9
2017-Apr-05 20:00N 25°52' W 079°35'5 9.3
2017-Apr-05 19:30N 25°56' W 079°33'5 9.7
2017-Apr-05 19:00N 26°00' W 079°30'5 9.8
2017-Apr-05 18:30N 26°04' W 079°27'510.0
2017-Apr-05 17:58N 26°09' W 079°24'510.2
2017-Apr-05 17:30N 26°13' W 079°21'610.5
2017-Apr-05 16:56N 26°17' W 079°17'  

Dump ship's entire track history